createdAt,value
2019-01-16T00:04:55.301Z,2.8
2019-01-16T00:09:57.791Z,2.8
2019-01-16T00:15:00.215Z,2.9
2019-01-16T00:20:02.713Z,2.9
2019-01-16T00:25:05.133Z,3
2019-01-16T00:30:07.618Z,3
2019-01-16T00:35:10.070Z,3
2019-01-16T00:45:14.962Z,3.1
2019-01-16T00:50:17.453Z,3.1
2019-01-16T00:55:19.877Z,3.2
2019-01-16T01:00:22.395Z,3.2
2019-01-16T01:05:24.799Z,3.2
2019-01-16T01:10:27.277Z,3.2
2019-01-16T01:15:29.706Z,3.3
2019-01-16T01:20:32.157Z,3.3
2019-01-16T01:25:34.625Z,3.3
2019-01-16T01:30:37.112Z,3.3
2019-01-16T01:35:39.529Z,3.3
2019-01-16T01:40:42.057Z,3.3
2019-01-16T01:45:44.494Z,3.4
2019-01-16T01:50:46.901Z,3.3
2019-01-16T01:55:49.376Z,3.3
2019-01-16T02:00:51.822Z,3.4
2019-01-16T02:05:54.295Z,3.4
2019-01-16T02:10:56.746Z,3.4
2019-01-16T02:15:59.184Z,3.4
2019-01-16T02:21:01.695Z,3.4
2019-01-16T02:26:04.112Z,3.4
2019-01-16T02:31:06.552Z,3.4
2019-01-16T02:36:09.031Z,3.5
2019-01-16T02:41:11.483Z,3.5
2019-01-16T02:46:13.959Z,3.5
2019-01-16T02:51:16.421Z,3.4
2019-01-16T02:56:18.880Z,3.4
2019-01-16T03:01:21.318Z,3.4
2019-01-16T03:06:23.754Z,3.4
2019-01-16T03:11:26.225Z,3.4
2019-01-16T03:16:28.668Z,3.4
2019-01-16T03:21:31.134Z,3.4
2019-01-16T03:26:33.573Z,3.4
2019-01-16T03:31:36.055Z,3.4
2019-01-16T03:41:40.980Z,3.4
2019-01-16T03:46:43.406Z,3.4
2019-01-16T03:51:45.866Z,3.4
2019-01-16T03:56:48.323Z,3.4
2019-01-16T04:01:50.783Z,3.4
2019-01-16T04:06:53.240Z,3.4
2019-01-16T04:11:55.698Z,3.4
2019-01-16T04:16:58.437Z,3.4
2019-01-16T04:22:00.615Z,3.4
2019-01-16T04:27:03.069Z,3.3
2019-01-16T04:32:05.532Z,3.4
2019-01-16T04:37:07.972Z,3.3
2019-01-16T04:42:10.494Z,3.3
2019-01-16T04:47:12.903Z,3.3
2019-01-16T04:52:15.354Z,3.3
2019-01-16T04:57:17.811Z,3.4
2019-01-16T05:02:20.266Z,3.3
2019-01-16T05:07:22.716Z,3.3
2019-01-16T05:12:25.168Z,3.3
2019-01-16T05:17:27.638Z,3.3
2019-01-16T05:22:30.106Z,3.4
2019-01-16T05:27:32.574Z,3.4
2019-01-16T05:32:35.007Z,3.4
2019-01-16T05:37:37.497Z,3.4
2019-01-16T05:42:39.938Z,3.4
2019-01-16T05:47:42.387Z,3.4
2019-01-16T05:52:44.839Z,3.4
2019-01-16T05:57:47.336Z,3.4
2019-01-16T06:02:49.750Z,3.4
2019-01-16T06:07:52.229Z,3.4
2019-01-16T06:12:54.690Z,3.4
2019-01-16T06:17:57.158Z,3.4
2019-01-16T06:28:02.086Z,3.4
2019-01-16T06:33:04.508Z,3.4
2019-01-16T06:38:06.974Z,3.4
2019-01-16T06:43:09.413Z,3.4
2019-01-16T06:48:11.906Z,3.4
2019-01-16T06:53:14.331Z,3.4
2019-01-16T06:58:16.792Z,3.4
2019-01-16T07:03:19.247Z,3.4
2019-01-16T07:08:21.698Z,3.4
2019-01-16T07:13:24.165Z,3.4
2019-01-16T07:18:26.613Z,3.4
2019-01-16T07:23:29.073Z,3.5
2019-01-16T07:28:31.524Z,3.5
2019-01-16T07:33:33.995Z,3.5
2019-01-16T07:38:36.449Z,3.5
2019-01-16T07:43:38.894Z,3.5
2019-01-16T07:48:41.360Z,3.6
2019-01-16T07:53:43.806Z,3.6
2019-01-16T07:58:46.307Z,3.6
2019-01-16T08:03:48.736Z,3.6
2019-01-16T08:08:51.179Z,3.7
2019-01-16T08:13:53.723Z,3.8
2019-01-16T08:18:56.216Z,3.8
2019-01-16T08:23:58.640Z,3.9
2019-01-16T08:29:01.012Z,4
2019-01-16T08:34:03.491Z,4.1
2019-01-16T08:39:05.947Z,4.2
2019-01-16T08:44:13.563Z,4.3
2019-01-16T08:49:10.859Z,4.4
2019-01-16T08:54:13.364Z,4.5
2019-01-16T08:59:15.763Z,4.5
2019-01-16T09:04:18.219Z,4.5
2019-01-16T09:09:20.672Z,4.4
2019-01-16T09:14:23.131Z,4.4
2019-01-16T09:19:25.668Z,4.4
2019-01-16T09:24:28.055Z,4.5
2019-01-16T09:29:30.498Z,4.8
2019-01-16T09:34:32.967Z,5.1
2019-01-16T09:39:35.419Z,5.4
2019-01-16T09:44:37.890Z,5.5
2019-01-16T09:49:40.336Z,5.6
2019-01-16T09:54:42.801Z,5.6
2019-01-16T09:59:45.266Z,5.5
2019-01-16T10:04:47.718Z,5.6
2019-01-16T10:09:50.176Z,5.7
2019-01-16T10:14:52.609Z,5.8
2019-01-16T10:19:55.085Z,5.8
2019-01-16T10:24:57.540Z,5.8
2019-01-16T10:30:00.181Z,5.9
2019-01-16T10:35:02.571Z,6.1
2019-01-16T10:40:04.951Z,6.5
2019-01-16T10:45:07.370Z,6.7
2019-01-16T10:50:09.924Z,7
2019-01-16T10:55:12.271Z,7.3
2019-01-16T11:00:14.750Z,7.3
2019-01-16T11:05:17.295Z,6.6
2019-01-16T11:10:19.672Z,6.1
2019-01-16T11:15:22.129Z,6
2019-01-16T11:20:24.583Z,6.2
2019-01-16T11:25:27.059Z,6.5
2019-01-16T11:30:29.512Z,7.4
2019-01-16T11:35:31.951Z,8
2019-01-16T11:40:34.394Z,8
2019-01-16T11:45:36.839Z,7.4
2019-01-16T11:50:39.339Z,6.8
2019-01-16T11:55:41.804Z,6.3
2019-01-16T12:00:44.248Z,6.2
2019-01-16T12:05:46.683Z,6.1
2019-01-16T12:10:49.141Z,6
2019-01-16T12:15:51.594Z,5.8
2019-01-16T12:20:54.084Z,5.5
2019-01-16T12:30:58.970Z,5.6
2019-01-16T12:36:01.510Z,5.5
2019-01-16T12:41:03.889Z,5.5
2019-01-16T12:46:06.330Z,5.4
2019-01-16T12:51:08.795Z,5.3
2019-01-16T12:56:11.297Z,5.3
2019-01-16T13:01:13.705Z,5.4
2019-01-16T13:06:16.365Z,5.4
2019-01-16T13:11:18.608Z,5.4
2019-01-16T13:16:21.082Z,5.3
2019-01-16T13:21:23.543Z,5.2
2019-01-16T13:26:25.999Z,5
2019-01-16T13:31:28.445Z,5.1
2019-01-16T13:36:30.908Z,5
2019-01-16T13:41:33.362Z,5
2019-01-16T13:46:35.879Z,5
2019-01-16T13:51:38.371Z,5.2
2019-01-16T13:56:40.758Z,5.4
2019-01-16T14:01:43.195Z,5.5
2019-01-16T14:06:45.653Z,5.7
2019-01-16T14:11:48.100Z,5.9
2019-01-16T14:16:50.588Z,6
2019-01-16T14:21:53.233Z,6
2019-01-16T14:26:55.581Z,6
2019-01-16T14:31:58.005Z,6
2019-01-16T14:37:00.405Z,5.9
2019-01-16T14:42:02.843Z,5.4
2019-01-16T14:47:05.296Z,5
2019-01-16T14:52:07.763Z,4.6
2019-01-16T14:57:10.242Z,4.3
2019-01-16T15:02:12.670Z,4.1
2019-01-16T15:07:15.146Z,4
2019-01-16T15:12:17.593Z,3.9
2019-01-16T15:17:20.061Z,3.8
2019-01-16T15:22:22.607Z,3.7
2019-01-16T15:27:24.954Z,3.5
2019-01-16T15:32:27.437Z,3.4
2019-01-16T15:37:30.390Z,3.3
2019-01-16T15:42:32.421Z,3.2
2019-01-16T15:47:34.916Z,3
2019-01-16T15:52:37.240Z,2.9
2019-01-16T15:57:39.769Z,2.9
2019-01-16T16:02:46.711Z,2.8
2019-01-16T16:07:44.715Z,2.7
2019-01-16T16:12:47.082Z,2.7
2019-01-16T16:17:49.557Z,2.6
2019-01-16T16:22:52.008Z,2.5
2019-01-16T16:27:54.467Z,2.5
2019-01-16T16:32:56.896Z,2.5
2019-01-16T16:37:59.354Z,2.5
2019-01-16T16:43:01.871Z,2.4
2019-01-16T16:48:04.265Z,2.3
2019-01-16T16:53:06.730Z,2.3
2019-01-16T16:58:09.219Z,2.2
2019-01-16T17:03:11.707Z,2.2
2019-01-16T17:08:14.133Z,2.1
2019-01-16T17:13:16.858Z,2
2019-01-16T17:18:19.016Z,2
2019-01-16T17:23:21.615Z,1.9
2019-01-16T17:28:23.947Z,1.8
2019-01-16T17:33:26.385Z,1.7
2019-01-16T17:38:28.847Z,1.7
2019-01-16T17:43:31.353Z,1.7
2019-01-16T17:48:33.771Z,1.7
2019-01-16T17:53:36.219Z,1.6
2019-01-16T17:58:38.671Z,1.6
2019-01-16T18:03:41.125Z,1.6
2019-01-16T18:08:43.656Z,1.6
2019-01-16T18:13:46.061Z,1.8
2019-01-16T18:18:48.563Z,2
2019-01-16T18:23:50.956Z,2.1
2019-01-16T18:28:53.444Z,2.2
2019-01-16T18:33:55.876Z,2.4
2019-01-16T18:38:58.346Z,2.4
2019-01-16T18:44:00.788Z,2.6
2019-01-16T18:49:03.241Z,2.6
2019-01-16T18:54:05.702Z,2.7
2019-01-16T18:59:08.169Z,2.7
2019-01-16T19:04:10.615Z,2.8
2019-01-16T19:09:13.079Z,2.9
2019-01-16T19:14:15.529Z,2.9
2019-01-16T19:19:17.988Z,2.9
2019-01-16T19:24:20.514Z,3
2019-01-16T19:29:23.006Z,3
2019-01-16T19:34:25.388Z,3
2019-01-16T19:39:27.843Z,3
2019-01-16T19:44:30.300Z,3.1
2019-01-16T19:49:32.728Z,3.1
2019-01-16T19:54:35.201Z,3.1
2019-01-16T19:59:37.633Z,3
2019-01-16T20:04:40.093Z,3
2019-01-16T20:09:42.563Z,2.9
2019-01-16T20:14:45.007Z,2.9
2019-01-16T20:19:47.499Z,2.9
2019-01-16T20:24:49.942Z,2.9
2019-01-16T20:29:52.428Z,2.9
2019-01-16T20:34:54.838Z,2.9
2019-01-16T20:39:57.295Z,2.9
2019-01-16T20:44:59.775Z,2.9
2019-01-16T20:50:02.273Z,2.9
2019-01-16T20:55:04.674Z,2.9
2019-01-16T21:00:07.165Z,2.8
2019-01-16T21:05:09.577Z,2.9
2019-01-16T21:10:12.056Z,3
2019-01-16T21:15:14.507Z,3.1
2019-01-16T21:20:16.955Z,3.3
2019-01-16T21:25:19.527Z,3.4
2019-01-16T21:30:21.877Z,3.4
2019-01-16T21:35:24.319Z,3.4
2019-01-16T21:40:26.809Z,3.6
2019-01-16T21:45:29.240Z,3.7
2019-01-16T21:50:31.684Z,3.8
2019-01-16T21:55:34.150Z,3.9
2019-01-16T22:00:36.622Z,3.9
2019-01-16T22:05:39.067Z,3.8
2019-01-16T22:10:41.526Z,3.8
2019-01-16T22:15:43.984Z,3.8
2019-01-16T22:20:46.437Z,3.7
2019-01-16T22:25:48.888Z,3.6
2019-01-16T22:30:51.386Z,3.7
2019-01-16T22:35:53.832Z,3.9
2019-01-16T22:40:56.269Z,4
2019-01-16T22:45:58.722Z,4.1
2019-01-16T22:51:01.260Z,4.1
2019-01-16T22:56:03.683Z,4.1
2019-01-16T23:01:06.138Z,4.1
2019-01-16T23:06:08.564Z,4.1
2019-01-16T23:11:11.022Z,4
2019-01-16T23:16:13.477Z,4
2019-01-16T23:21:15.928Z,3.9
2019-01-16T23:26:18.420Z,3.8
2019-01-16T23:31:20.846Z,3.7
2019-01-16T23:36:23.322Z,3.5
2019-01-16T23:41:25.852Z,3.3
2019-01-16T23:46:28.224Z,3.1
2019-01-16T23:51:30.687Z,2.9
2019-01-16T23:56:33.157Z,2.7
